首页
METAR-TAF:

METAR-TAF

机场 :

威斯巴登, 德国

纬度: 50-03N, 经度: 008-20E, 海拔: 140米

当前天气观测

该预报发布于41分钟前的12:56 UTC
风速6节,风向
温度 9°C
湿度 40%
气压 1028 hPa
能见度10公里或以上
少量云层高于4000英尺
少量云层高于17000英尺

METAR: ETOU 151256Z 08006KT 9999 FEW040 FEW170 09/M04 A3035 RMK AO2A SLPNO RVRNO PWINO PNO FZRANO TSNO VISNO RWY25 CHINO RWY25

时间: 15:37 (13:37 UTC)

预报

该预报发布于1小时和37分钟前的12:00 UTC
预报有效从15日的 12点(UTC)到 16日的 18点(UTC)
风速6节,风向多变
能见度10公里或以上
多云层高于4500英尺
短暂存在
从 15日的 13点(UTC)到 15日的 16点(UTC)
能見度: 8000
多云层高于2500英尺
小阵雨
成为
从 16日的 03点(UTC)到 16日的 04点(UTC)
风速6节,风向多变
能见度10公里或以上
散云层高于2300英尺
成为
从 16日的 07点(UTC)到 16日的 08点(UTC)
风速12节,风向北转东北
能见度10公里或以上
散云层高于1500英尺
成为
从 16日的 09点(UTC)到 16日的 10点(UTC)
风速12节,风向东北,有时为18节阵风
能见度10公里或以上
多云层高于3000英尺
成为
从 16日的 17点(UTC)到 16日的 18点(UTC)
风速6节,风向多变
能见度10公里或以上
多云层高于4500英尺

TAF: ETOU 151200Z 1512/1618 VRB06KT 9999 BKN045 QNH3032INS TEMPO 1513/1516 8000 -SHRA BKN025 BECMG 1603/1604 VRB06KT 9999 SCT023 QNH3030INS BECMG 1607/1608 03012KT 9999 SCT015 QNH3035INS BECMG 1609/1610 05012G18KT 9999 BKN030 QNH3026INS BECMG 1617/1618 VRB06KT 9999 BKN045 QNH3026INS TX09/1515Z TN01/1605Z

超过4000个机场的气象观测和天气预报(METAR&TAF报告)。

可查询的气象台以黄色和红色小点在地图上表示。

将鼠标移到小点上方,可查看气象台名称。

然后点击查看天气观测和预报。

如需切换地图:点击带黑十字的绿色按钮放大地图;点击带横线的绿色按钮缩小地图;或者点击绿色箭头查看邻近地区的地图。


METAR-TAF: